Time;durP1;ratioP1;P1;durP2;ratioP2;P2;SDS_P1;SDS_P2;PMS_P1;PMS_P2;Temp;Humidity;BMP_temperature;BMP_pressure;BME280_temperature;BME280_humidity;BME280_pressure;Samples;Min_cycle;Max_cycle;Signal;HPM_P1;HPM_P2
2023/02/13 00:00:19;;;;;;;;;;;21.50;50.70;;;;;;1562912;74;716;-72
2023/02/13 00:02:21;;;;;;;;;;;21.50;50.70;;;;;;1561450;74;1318;-71
2023/02/13 00:04:23;;;;;;;;;;;21.50;50.70;;;;;;1555091;75;728;-70
2023/02/13 00:06:25;;;;;;;;;;;21.50;50.70;;;;;;1549420;75;710;-70
2023/02/13 00:08:27;;;;;;;;;;;21.50;50.80;;;;;;1554381;75;860;-73
2023/02/13 00:10:28;;;;;;;;;;;21.50;50.70;;;;;;1559586;74;1947;-72
2023/02/13 00:12:30;;;;;;;;;;;21.50;50.80;;;;;;1557102;75;1079;-72
2023/02/13 00:14:35;;;;;;;;;;;21.50;50.80;;;;;;1552787;74;716;-73
2023/02/13 00:16:37;;;;;;;;;;;21.50;50.70;;;;;;1554538;75;1557;-72
2023/02/13 00:18:39;;;;;;;;;;;21.50;50.80;;;;;;1552709;74;763;-72
2023/02/13 00:20:41;;;;;;;;;;;21.40;50.70;;;;;;1548077;74;749;-69
2023/02/13 00:22:43;;;;;;;;;;;21.50;50.80;;;;;;1555323;74;1156;-71
2023/02/13 00:24:45;;;;;;;;;;;21.50;50.80;;;;;;1552601;74;662;-68
2023/02/13 00:26:46;;;;;;;;;;;21.40;50.70;;;;;;1555211;74;627;-72
2023/02/13 00:28:48;;;;;;;;;;;21.40;50.80;;;;;;1559650;75;720;-72
2023/02/13 00:30:50;;;;;;;;;;;21.40;50.80;;;;;;1561222;74;1933;-71
2023/02/13 00:32:52;;;;;;;;;;;21.40;50.80;;;;;;1564021;75;1140;-71
2023/02/13 00:34:55;;;;;;;;;;;21.40;51.00;;;;;;1545374;75;666;-71
2023/02/13 00:36:57;;;;;;;;;;;21.50;51.00;;;;;;1557431;75;805;-72
2023/02/13 00:38:59;;;;;;;;;;;21.50;51.00;;;;;;1558515;74;741;-71
2023/02/13 00:41:00;;;;;;;;;;;21.40;50.90;;;;;;1560656;75;791;-71
2023/02/13 00:43:02;;;;;;;;;;;21.50;51.00;;;;;;1561114;74;1084;-71
2023/02/13 00:45:04;;;;;;;;;;;21.40;50.90;;;;;;1555798;74;1764;-71
2023/02/13 00:47:06;;;;;;;;;;;21.50;51.00;;;;;;1553226;74;716;-71
2023/02/13 00:49:08;;;;;;;;;;;21.40;51.00;;;;;;1555456;75;812;-71
2023/02/13 00:51:10;;;;;;;;;;;21.40;51.00;;;;;;1551974;74;1947;-73
2023/02/13 00:53:12;;;;;;;;;;;21.40;51.00;;;;;;1557550;74;1118;-72
2023/02/13 00:55:14;;;;;;;;;;;21.30;51.00;;;;;;1557973;75;750;-72
2023/02/13 00:57:16;;;;;;;;;;;21.40;51.00;;;;;;1559824;75;1521;-70
2023/02/13 00:59:18;;;;;;;;;;;21.40;51.00;;;;;;1551675;75;743;-69
2023/02/13 01:01:20;;;;;;;;;;;21.40;51.20;;;;;;1558585;74;1124;-73
2023/02/13 01:03:21;;;;;;;;;;;21.30;51.30;;;;;;1551936;75;739;-71
2023/02/13 01:05:23;;;;;;;;;;;21.40;51.10;;;;;;1549934;75;700;-72
2023/02/13 01:07:25;;;;;;;;;;;21.40;51.10;;;;;;1560524;75;703;-71
2023/02/13 01:09:27;;;;;;;;;;;21.30;51.10;;;;;;1563314;74;635;-71
2023/02/13 01:11:29;;;;;;;;;;;21.40;51.20;;;;;;1556456;75;1945;-71
2023/02/13 01:13:31;;;;;;;;;;;21.40;51.20;;;;;;1558915;74;785;-70
2023/02/13 01:15:33;;;;;;;;;;;21.40;51.30;;;;;;1559980;75;731;-70
2023/02/13 01:17:35;;;;;;;;;;;21.30;51.30;;;;;;1551285;75;914;-72
2023/02/13 01:19:42;;;;;;;;;;;21.40;51.30;;;;;;1556523;74;735;-71
2023/02/13 01:21:44;;;;;;;;;;;21.30;51.40;;;;;;1557068;74;1092;-71
2023/02/13 01:23:46;;;;;;;;;;;21.40;51.40;;;;;;1557614;74;802;-69
2023/02/13 01:25:50;;;;;;;;;;;21.40;51.30;;;;;;1560262;75;1570;-70
2023/02/13 01:27:51;;;;;;;;;;;21.30;51.50;;;;;;1551899;75;1329;-72
2023/02/13 01:29:53;;;;;;;;;;;21.40;51.50;;;;;;1560088;75;1923;-70
2023/02/13 01:31:55;;;;;;;;;;;21.30;51.60;;;;;;1555719;74;1157;-71
2023/02/13 01:33:57;;;;;;;;;;;21.50;51.70;;;;;;1555853;75;810;-73
2023/02/13 01:35:59;;;;;;;;;;;21.40;51.50;;;;;;1563727;75;722;-71
2023/02/13 01:38:01;;;;;;;;;;;21.40;51.40;;;;;;1551072;75;740;-72
2023/02/13 01:40:03;;;;;;;;;;;21.50;51.50;;;;;;1557064;74;1575;-71
2023/02/13 01:42:05;;;;;;;;;;;21.50;51.50;;;;;;1554223;74;1152;-71
2023/02/13 01:44:25;;;;;;;;;;;21.40;51.30;;;;;;1560527;74;741;-69
2023/02/13 01:46:34;;;;;;;;;;;21.40;51.30;;;;;;1553124;74;722;-71
2023/02/13 01:48:36;;;;;;;;;;;21.40;51.40;;;;;;1554938;75;792;-71
2023/02/13 01:50:46;;;;;;;;;;;21.40;51.50;;;;;;1559825;74;1929;-71
2023/02/13 01:52:49;;;;;;;;;;;21.30;51.40;;;;;;1556921;74;1186;-69
2023/02/13 01:54:51;;;;;;;;;;;21.30;51.50;;;;;;1549682;74;1786;-72
2023/02/13 01:56:54;;;;;;;;;;;21.40;51.40;;;;;;1559673;75;787;-70
2023/02/13 01:58:57;;;;;;;;;;;21.40;51.50;;;;;;1556841;74;732;-71
2023/02/13 02:00:59;;;;;;;;;;;21.40;51.40;;;;;;1553551;75;762;-72
2023/02/13 02:03:02;;;;;;;;;;;21.40;51.40;;;;;;1555623;74;1127;-70
2023/02/13 02:05:04;;;;;;;;;;;21.30;51.50;;;;;;1553324;74;743;-71
2023/02/13 02:07:07;;;;;;;;;;;21.40;51.50;;;;;;1562078;75;761;-71
2023/02/13 02:09:13;;;;;;;;;;;21.40;51.50;;;;;;1563977;75;1586;-70
2023/02/13 02:11:17;;;;;;;;;;;21.30;51.60;;;;;;1562839;74;1921;-70
2023/02/13 02:13:19;;;;;;;;;;;21.40;51.70;;;;;;1558844;74;887;-73
2023/02/13 02:15:21;;;;;;;;;;;21.40;51.80;;;;;;1554969;74;662;-71
2023/02/13 02:17:23;;;;;;;;;;;21.40;51.80;;;;;;1555150;75;772;-70
2023/02/13 02:19:27;;;;;;;;;;;21.40;51.80;;;;;;1553629;75;683;-69
2023/02/13 02:21:36;;;;;;;;;;;21.40;51.80;;;;;;1556476;74;1145;-69
2023/02/13 02:23:43;;;;;;;;;;;21.30;51.80;;;;;;1547433;75;720;-69
2023/02/13 02:25:46;;;;;;;;;;;21.40;51.80;;;;;;1554130;75;760;-69
2023/02/13 02:27:52;;;;;;;;;;;21.40;51.80;;;;;;1558537;74;713;-69
2023/02/13 02:30:02;;;;;;;;;;;21.40;51.80;;;;;;1549743;74;1140;-69
2023/02/13 02:32:17;;;;;;;;;;;21.40;51.80;;;;;;1552678;74;1654;-72
2023/02/13 02:34:37;;;;;;;;;;;21.40;51.80;;;;;;1558586;75;776;-70
2023/02/13 02:36:47;;;;;;;;;;;21.40;51.80;;;;;;1559425;74;719;-70
2023/02/13 02:38:56;;;;;;;;;;;21.30;52.00;;;;;;1556862;74;1870;-70
2023/02/13 02:41:02;;;;;;;;;;;21.40;51.90;;;;;;1561741;74;717;-70
2023/02/13 02:43:12;;;;;;;;;;;21.40;52.00;;;;;;1554139;75;1843;-69
2023/02/13 02:45:16;;;;;;;;;;;21.40;51.90;;;;;;1557557;74;962;-70
2023/02/13 02:50:00;;;;;;;;;;;21.40;51.80;;;;;;1556287;74;1630;-69
2023/02/13 02:52:06;;;;;;;;;;;21.30;51.90;;;;;;1560634;74;1901;-71
2023/02/13 02:56:39;;;;;;;;;;;21.30;52.00;;;;;;1513845;78;1664;-71
2023/02/13 03:06:24;;;;;;;;;;;21.30;52.10;;;;;;1552654;74;1662;-69
2023/02/13 03:07:48;;;;;;;;;;;21.40;52.20;;;;;;1539753;75;1383;-72
2023/02/13 03:14:36;;;;;;;;;;;21.40;52.30;;;;;;1553285;74;1665;-70
2023/02/13 03:23:53;;;;;;;;;;;21.30;52.30;;;;;;1551439;74;1669;-68
2023/02/13 03:26:08;;;;;;;;;;;21.30;52.20;;;;;;1554374;75;1701;-70
2023/02/13 03:30:55;;;;;;;;;;;21.40;52.30;;;;;;1551081;74;1893;-71
2023/02/13 03:33:01;;;;;;;;;;;21.40;52.30;;;;;;1562078;75;1127;-70
2023/02/13 03:37:53;;;;;;;;;;;21.40;52.30;;;;;;1559059;75;1683;-70
2023/02/13 03:40:11;;;;;;;;;;;21.30;52.30;;;;;;1571123;74;760;-70
2023/02/13 03:42:31;;;;;;;;;;;21.30;52.30;;;;;;1551699;75;1144;-70
2023/02/13 03:45:51;;;;;;;;;;;21.30;52.30;;;;;;1561546;74;861;-68
2023/02/13 03:46:56;;;;;;;;;;;21.40;52.30;;;;;;1567289;75;975;-70
2023/02/13 03:51:23;;;;;;;;;;;21.30;52.40;;;;;;1556083;75;1892;-70
2023/02/13 03:53:25;;;;;;;;;;;21.50;52.50;;;;;;1560054;74;1151;-72
2023/02/13 04:00:09;;;;;;;;;;;21.40;52.60;;;;;;1555330;74;1666;-70
2023/02/13 04:02:12;;;;;;;;;;;21.40;52.60;;;;;;1555677;74;1156;-71
2023/02/13 04:04:25;;;;;;;;;;;21.40;52.80;;;;;;1551295;74;708;-69
2023/02/13 04:06:28;;;;;;;;;;;21.40;52.80;;;;;;1572623;75;721;-70
2023/02/13 04:08:30;;;;;;;;;;;21.30;52.80;;;;;;1554575;75;949;-70
2023/02/13 04:10:33;;;;;;;;;;;21.30;52.90;;;;;;1558391;74;1947;-70
2023/02/13 04:12:39;;;;;;;;;;;21.40;53.10;;;;;;1553629;75;1205;-70
2023/02/13 04:14:48;;;;;;;;;;;21.40;53.10;;;;;;1562398;74;1655;-72
2023/02/13 04:16:51;;;;;;;;;;;21.40;53.10;;;;;;1563422;75;724;-70
2023/02/13 04:18:53;;;;;;;;;;;21.40;53.20;;;;;;1556878;75;811;-70
2023/02/13 04:20:55;;;;;;;;;;;21.40;53.30;;;;;;1558284;75;737;-70
2023/02/13 04:22:57;;;;;;;;;;;21.40;53.50;;;;;;1559825;74;1129;-69
2023/02/13 04:24:59;;;;;;;;;;;21.30;53.40;;;;;;1560082;74;889;-69
2023/02/13 04:27:01;;;;;;;;;;;21.40;53.10;;;;;;1560375;75;806;-71
2023/02/13 04:29:03;;;;;;;;;;;21.50;53.10;;;;;;1563432;75;735;-68
2023/02/13 04:31:05;;;;;;;;;;;21.60;52.90;;;;;;1554734;74;1931;-69
2023/02/13 04:33:07;;;;;;;;;;;21.50;52.90;;;;;;1554747;75;1141;-69
2023/02/13 04:35:10;;;;;;;;;;;21.50;53.00;;;;;;1558970;75;711;-69
2023/02/13 04:37:12;;;;;;;;;;;21.50;52.80;;;;;;1560867;74;769;-70
2023/02/13 04:39:14;;;;;;;;;;;21.50;52.80;;;;;;1560882;74;732;-71
2023/02/13 04:41:16;;;;;;;;;;;21.60;52.60;;;;;;1561682;75;737;-69
2023/02/13 04:43:18;;;;;;;;;;;21.60;52.60;;;;;;1569990;75;1149;-69
2023/02/13 04:45:19;;;;;;;;;;;21.60;52.50;;;;;;1559618;74;812;-71
2023/02/13 04:47:21;;;;;;;;;;;21.60;52.50;;;;;;1568534;74;762;-69
2023/02/13 04:49:23;;;;;;;;;;;21.60;52.60;;;;;;1557750;74;731;-71
2023/02/13 04:51:25;;;;;;;;;;;21.50;52.50;;;;;;1556624;74;1939;-70
2023/02/13 04:53:27;;;;;;;;;;;21.60;52.50;;;;;;1558104;74;732;-74
2023/02/13 04:55:29;;;;;;;;;;;21.60;52.50;;;;;;1567049;74;730;-73
2023/02/13 04:57:31;;;;;;;;;;;21.60;52.60;;;;;;1567670;75;844;-70
2023/02/13 04:59:32;;;;;;;;;;;21.50;52.70;;;;;;1557309;75;776;-69
2023/02/13 05:01:34;;;;;;;;;;;21.50;52.60;;;;;;1566259;74;1159;-71
2023/02/13 05:03:36;;;;;;;;;;;21.60;52.50;;;;;;1561358;74;726;-71
2023/02/13 05:05:38;;;;;;;;;;;21.50;52.30;;;;;;1555388;74;689;-71
2023/02/13 05:07:41;;;;;;;;;;;21.60;52.30;;;;;;1554864;75;749;-72
2023/02/13 05:09:42;;;;;;;;;;;21.60;52.30;;;;;;1551275;74;751;-71
2023/02/13 05:11:44;;;;;;;;;;;21.50;52.30;;;;;;1558583;75;1955;-68
2023/02/13 05:13:46;;;;;;;;;;;21.60;52.30;;;;;;1559748;74;711;-71
2023/02/13 05:15:48;;;;;;;;;;;21.60;52.50;;;;;;1553388;75;741;-69
2023/02/13 05:17:50;;;;;;;;;;;21.60;52.40;;;;;;1562262;75;751;-69
2023/02/13 05:19:52;;;;;;;;;;;21.50;52.30;;;;;;1565010;74;755;-68
2023/02/13 05:24:13;;;;;;;;;;;21.50;52.60;;;;;;1561207;74;736;-70
2023/02/13 05:26:15;;;;;;;;;;;21.50;52.60;;;;;;1567180;74;726;-70
2023/02/13 05:30:38;;;;;;;;;;;21.60;52.40;;;;;;1558531;75;1656;-69
2023/02/13 05:32:42;;;;;;;;;;;21.60;52.40;;;;;;1562502;74;1910;-72
2023/02/13 05:34:43;;;;;;;;;;;21.60;52.40;;;;;;1557524;75;826;-69
2023/02/13 05:36:45;;;;;;;;;;;21.60;52.30;;;;;;1556975;74;690;-71
2023/02/13 05:38:47;;;;;;;;;;;21.60;52.30;;;;;;1558580;74;768;-69
2023/02/13 05:40:49;;;;;;;;;;;21.60;52.30;;;;;;1558175;75;764;-70
2023/02/13 05:42:51;;;;;;;;;;;21.60;52.60;;;;;;1570186;75;1152;-68
2023/02/13 05:44:53;;;;;;;;;;;21.50;52.80;;;;;;1551915;75;1300;-68
2023/02/13 05:46:55;;;;;;;;;;;21.50;52.90;;;;;;1564446;74;814;-70
2023/02/13 05:48:56;;;;;;;;;;;21.50;52.80;;;;;;1576741;74;751;-68
2023/02/13 05:50:58;;;;;;;;;;;21.50;52.70;;;;;;1581634;75;804;-67
2023/02/13 05:53:00;;;;;;;;;;;21.60;52.60;;;;;;1574449;74;1923;-68
2023/02/13 05:55:02;;;;;;;;;;;21.50;52.50;;;;;;1570273;75;733;-68
2023/02/13 05:57:04;;;;;;;;;;;21.50;52.30;;;;;;1575589;75;810;-67
2023/02/13 05:59:06;;;;;;;;;;;21.50;52.20;;;;;;1581605;75;867;-68
2023/02/13 06:01:08;;;;;;;;;;;21.50;52.20;;;;;;1575285;74;677;-68
2023/02/13 06:03:10;;;;;;;;;;;21.50;51.90;;;;;;1570988;74;1218;-67
2023/02/13 06:05:11;;;;;;;;;;;21.50;52.10;;;;;;1567222;74;808;-70
2023/02/13 06:07:13;;;;;;;;;;;21.50;51.90;;;;;;1565938;75;1524;-67
2023/02/13 06:09:15;;;;;;;;;;;21.50;52.00;;;;;;1569804;75;849;-72
2023/02/13 06:11:17;;;;;;;;;;;21.40;52.10;;;;;;1572479;74;1932;-68
2023/02/13 06:13:19;;;;;;;;;;;21.40;52.40;;;;;;1578681;74;1183;-72
2023/02/13 06:15:21;;;;;;;;;;;21.30;52.70;;;;;;1574788;74;690;-69
2023/02/13 06:17:23;;;;;;;;;;;21.20;53.10;;;;;;1576358;74;692;-70
2023/02/13 06:19:24;;;;;;;;;;;21.30;53.00;;;;;;1578752;75;752;-66
2023/02/13 06:21:26;;;;;;;;;;;21.30;53.10;;;;;;1572278;74;1142;-69
2023/02/13 06:23:28;;;;;;;;;;;21.30;53.10;;;;;;1573488;74;836;-67
2023/02/13 06:25:30;;;;;;;;;;;21.30;53.20;;;;;;1577893;75;719;-68
2023/02/13 06:27:32;;;;;;;;;;;21.30;53.60;;;;;;1568384;74;814;-70
2023/02/13 06:29:34;;;;;;;;;;;21.20;53.40;;;;;;1581698;75;754;-67
2023/02/13 06:31:36;;;;;;;;;;;21.30;53.70;;;;;;1572711;74;1950;-68
2023/02/13 06:33:38;;;;;;;;;;;21.40;53.40;;;;;;1564975;74;663;-68
2023/02/13 06:35:39;;;;;;;;;;;21.40;53.40;;;;;;1571368;75;747;-68
2023/02/13 06:37:47;;;;;;;;;;;21.30;53.20;;;;;;1571755;74;802;-69
2023/02/13 06:39:45;;;;;;;;;;;21.40;52.90;;;;;;1575124;75;1032;-70
2023/02/13 06:41:47;;;;;;;;;;;21.30;52.80;;;;;;1571584;75;1125;-70
2023/02/13 06:43:49;;;;;;;;;;;21.20;52.70;;;;;;1574678;74;729;-67
2023/02/13 06:45:52;;;;;;;;;;;21.30;52.90;;;;;;1577502;74;806;-68
2023/02/13 06:47:54;;;;;;;;;;;21.10;52.80;;;;;;1572480;74;841;-68
2023/02/13 06:49:56;;;;;;;;;;;21.10;52.80;;;;;;1576282;74;747;-68
2023/02/13 06:51:58;;;;;;;;;;;21.20;52.70;;;;;;1575453;75;1959;-71
2023/02/13 06:54:00;;;;;;;;;;;21.10;52.70;;;;;;1573489;74;794;-67
2023/02/13 06:56:03;;;;;;;;;;;21.20;52.60;;;;;;1572798;74;775;-68
2023/02/13 06:58:05;;;;;;;;;;;21.10;52.60;;;;;;1577445;75;688;-68
2023/02/13 07:00:09;;;;;;;;;;;21.10;52.60;;;;;;1578592;74;597;-67
2023/02/13 07:02:11;;;;;;;;;;;21.00;52.60;;;;;;1574700;75;1586;-70
2023/02/13 07:04:13;;;;;;;;;;;21.20;52.40;;;;;;1577649;75;1525;-68
2023/02/13 07:06:18;;;;;;;;;;;21.30;51.00;;;;;;1568561;74;685;-69
2023/02/13 07:08:20;;;;;;;;;;;21.40;49.10;;;;;;1576993;75;882;-69
2023/02/13 07:10:22;;;;;;;;;;;21.50;47.90;;;;;;1571141;75;779;-69
2023/02/13 07:12:24;;;;;;;;;;;21.50;46.80;;;;;;1568721;74;1929;-69
2023/02/13 07:14:26;;;;;;;;;;;21.50;46.00;;;;;;1569935;74;798;-69
2023/02/13 07:16:28;;;;;;;;;;;21.50;45.40;;;;;;1571197;75;742;-68
2023/02/13 07:18:29;;;;;;;;;;;21.50;45.10;;;;;;1580957;75;733;-69
2023/02/13 07:20:31;;;;;;;;;;;21.40;44.90;;;;;;1580247;75;752;-69
2023/02/13 07:22:33;;;;;;;;;;;21.40;44.30;;;;;;1574761;74;1124;-69
2023/02/13 07:24:37;;;;;;;;;;;21.30;44.20;;;;;;1569205;75;722;-69
2023/02/13 07:26:39;;;;;;;;;;;21.20;43.90;;;;;;1573049;75;836;-69
2023/02/13 07:28:41;;;;;;;;;;;21.20;43.90;;;;;;1580455;74;709;-70
2023/02/13 07:30:43;;;;;;;;;;;21.20;43.90;;;;;;1572596;74;673;-69
2023/02/13 07:32:44;;;;;;;;;;;21.10;43.70;;;;;;1572091;75;1953;-69
2023/02/13 07:34:46;;;;;;;;;;;21.10;43.90;;;;;;1576047;75;753;-68
2023/02/13 07:36:48;;;;;;;;;;;21.00;43.40;;;;;;1571479;75;736;-69
2023/02/13 07:38:50;;;;;;;;;;;21.00;43.40;;;;;;1575478;74;763;-69
2023/02/13 07:40:52;;;;;;;;;;;21.00;43.20;;;;;;1569369;75;814;-69
2023/02/13 07:42:54;;;;;;;;;;;21.00;43.40;;;;;;1576816;75;1170;-70
2023/02/13 07:44:56;;;;;;;;;;;21.00;43.60;;;;;;1567136;74;814;-69
2023/02/13 07:46:59;;;;;;;;;;;20.90;43.70;;;;;;1567753;75;767;-67
2023/02/13 07:49:01;;;;;;;;;;;20.90;43.70;;;;;;1571043;74;717;-69
2023/02/13 07:51:04;;;;;;;;;;;20.80;43.70;;;;;;1564369;74;757;-68
2023/02/13 07:53:06;;;;;;;;;;;20.80;44.20;;;;;;1567704;74;1953;-69
2023/02/13 07:55:10;;;;;;;;;;;20.80;44.30;;;;;;1566518;75;1072;-67
2023/02/13 07:57:11;;;;;;;;;;;20.80;44.40;;;;;;1569866;74;1703;-69
2023/02/13 07:59:13;;;;;;;;;;;20.80;44.60;;;;;;1565331;75;1372;-71
2023/02/13 08:01:16;;;;;;;;;;;20.70;45.00;;;;;;1571707;74;792;-68
2023/02/13 08:03:17;;;;;;;;;;;20.60;45.40;;;;;;1578151;75;1147;-69
2023/02/13 08:05:19;;;;;;;;;;;20.60;45.80;;;;;;1572341;74;686;-69
2023/02/13 08:07:21;;;;;;;;;;;20.50;46.20;;;;;;1573237;74;714;-68
2023/02/13 08:11:52;;;;;;;;;;;20.50;46.90;;;;;;1570566;74;1189;-69
2023/02/13 08:13:54;;;;;;;;;;;20.60;47.20;;;;;;1576330;74;716;-68
2023/02/13 08:15:56;;;;;;;;;;;20.60;47.40;;;;;;1574038;74;769;-69
2023/02/13 08:17:58;;;;;;;;;;;20.60;47.60;;;;;;1569473;75;706;-68
2023/02/13 08:20:00;;;;;;;;;;;20.60;47.80;;;;;;1561457;74;712;-71
2023/02/13 08:22:02;;;;;;;;;;;20.60;48.00;;;;;;1570399;74;1191;-69
2023/02/13 08:24:04;;;;;;;;;;;20.60;48.10;;;;;;1571460;75;737;-70
2023/02/13 08:26:06;;;;;;;;;;;20.60;48.20;;;;;;1571084;75;668;-72
2023/02/13 08:28:09;;;;;;;;;;;20.60;48.40;;;;;;1570535;74;792;-68
2023/02/13 08:30:11;;;;;;;;;;;20.60;48.40;;;;;;1568256;75;706;-69
2023/02/13 08:32:13;;;;;;;;;;;20.60;48.50;;;;;;1569506;74;1928;-70
2023/02/13 08:34:15;;;;;;;;;;;20.60;48.60;;;;;;1537688;75;867;-68
2023/02/13 08:36:18;;;;;;;;;;;20.60;48.60;;;;;;1549030;76;892;-71
2023/02/13 08:38:20;;;;;;;;;;;20.70;48.80;;;;;;1546177;76;713;-69
2023/02/13 08:40:22;;;;;;;;;;;20.60;48.80;;;;;;1558254;75;740;-70
2023/02/13 08:42:24;;;;;;;;;;;20.70;49.10;;;;;;1562509;75;1149;-70
2023/02/13 08:44:26;;;;;;;;;;;20.70;49.10;;;;;;1551370;75;692;-70
2023/02/13 08:46:28;;;;;;;;;;;20.60;48.90;;;;;;1556934;76;795;-69
2023/02/13 08:48:30;;;;;;;;;;;20.70;49.10;;;;;;1555239;75;713;-70
2023/02/13 08:50:31;;;;;;;;;;;20.80;49.10;;;;;;1551826;76;798;-71
2023/02/13 08:52:33;;;;;;;;;;;20.70;49.10;;;;;;1548264;75;1961;-71
2023/02/13 08:54:35;;;;;;;;;;;20.80;49.00;;;;;;1550941;75;724;-70
2023/02/13 08:56:37;;;;;;;;;;;20.80;49.00;;;;;;1566920;75;1610;-67
2023/02/13 08:58:39;;;;;;;;;;;20.80;48.90;;;;;;1542686;75;687;-67
2023/02/13 09:00:41;;;;;;;;;;;20.90;48.90;;;;;;1574637;73;720;-69
2023/02/13 09:02:43;;;;;;;;;;;20.90;48.90;;;;;;1564749;74;1132;-70
2023/02/13 09:04:44;;;;;;;;;;;20.90;48.70;;;;;;1555442;75;724;-69
2023/02/13 09:06:46;;;;;;;;;;;21.00;48.70;;;;;;1552502;76;748;-69
2023/02/13 09:08:48;;;;;;;;;;;21.00;48.60;;;;;;1557619;75;737;-71
2023/02/13 09:10:52;;;;;;;;;;;21.00;48.40;;;;;;1557152;75;739;-69
2023/02/13 09:12:54;;;;;;;;;;;21.10;48.30;;;;;;1553603;75;1942;-70
2023/02/13 09:14:55;;;;;;;;;;;21.20;48.20;;;;;;1565846;75;729;-71
2023/02/13 09:16:57;;;;;;;;;;;21.30;48.20;;;;;;1554508;76;845;-70
2023/02/13 09:19:00;;;;;;;;;;;21.20;47.90;;;;;;1544343;75;796;-69
2023/02/13 09:21:02;;;;;;;;;;;21.30;47.90;;;;;;1565565;76;812;-71
2023/02/13 09:23:04;;;;;;;;;;;21.30;47.80;;;;;;1564686;75;1180;-69
2023/02/13 09:25:06;;;;;;;;;;;21.40;47.70;;;;;;1562783;75;690;-70
2023/02/13 09:27:08;;;;;;;;;;;21.40;47.60;;;;;;1555504;76;740;-69
2023/02/13 09:29:10;;;;;;;;;;;21.40;47.60;;;;;;1553689;76;781;-71
2023/02/13 09:31:18;;;;;;;;;;;21.40;47.70;;;;;;1558743;75;748;-70
2023/02/13 09:33:17;;;;;;;;;;;21.40;47.70;;;;;;1553690;75;1935;-70
2023/02/13 09:35:19;;;;;;;;;;;21.40;47.60;;;;;;1559276;76;740;-70
2023/02/13 09:37:21;;;;;;;;;;;21.30;47.70;;;;;;1555144;76;752;-69
2023/02/13 09:39:23;;;;;;;;;;;21.30;47.70;;;;;;1556425;75;696;-71
2023/02/13 09:41:32;;;;;;;;;;;21.30;47.70;;;;;;1547348;75;1123;-70
2023/02/13 09:43:39;;;;;;;;;;;21.30;47.80;;;;;;1576408;73;703;-69
2023/02/13 09:45:41;;;;;;;;;;;21.40;47.70;;;;;;1577627;73;1944;-69
2023/02/13 09:47:43;;;;;;;;;;;21.30;47.70;;;;;;1585766;73;804;-70
2023/02/13 09:49:46;;;;;;;;;;;21.40;47.80;;;;;;1577844;75;789;-68
2023/02/13 09:51:49;;;;;;;;;;;21.30;47.80;;;;;;1580018;73;1571;-70
2023/02/13 09:53:56;;;;;;;;;;;21.30;47.70;;;;;;1577344;73;1935;-68
2023/02/13 09:55:59;;;;;;;;;;;21.30;47.80;;;;;;1560718;74;1578;-69
2023/02/13 09:58:06;;;;;;;;;;;21.30;47.80;;;;;;1563480;75;2075;-68
2023/02/13 10:00:12;;;;;;;;;;;21.30;47.80;;;;;;1575138;74;1786;-68
2023/02/13 10:02:31;;;;;;;;;;;21.30;47.80;;;;;;1579211;73;1641;-69
2023/02/13 10:04:38;;;;;;;;;;;21.30;47.80;;;;;;1572102;73;718;-68
2023/02/13 10:06:48;;;;;;;;;;;21.30;47.90;;;;;;1580394;73;1779;-66
2023/02/13 10:08:49;;;;;;;;;;;21.30;47.90;;;;;;1580961;75;1926;-67
2023/02/13 10:10:58;;;;;;;;;;;21.30;47.90;;;;;;1585597;75;765;-68
2023/02/13 10:13:22;;;;;;;;;;;21.20;47.80;;;;;;1581409;73;1945;-69
2023/02/13 10:15:23;;;;;;;;;;;21.30;47.90;;;;;;1571002;74;1167;-66
2023/02/13 10:17:30;;;;;;;;;;;21.30;47.90;;;;;;1570341;73;1910;-69
2023/02/13 10:19:45;;;;;;;;;;;21.30;48.00;;;;;;1568975;75;760;-67
2023/02/13 10:21:52;;;;;;;;;;;21.30;47.90;;;;;;1563605;73;1175;-68
2023/02/13 10:23:58;;;;;;;;;;;21.30;48.00;;;;;;1562397;73;736;-69
2023/02/13 10:26:13;;;;;;;;;;;21.20;47.90;;;;;;1563212;73;755;-68
2023/02/13 10:28:36;;;;;;;;;;;21.30;48.10;;;;;;1580976;73;684;-68
2023/02/13 10:30:42;;;;;;;;;;;21.30;48.10;;;;;;1578459;73;722;-69
2023/02/13 10:32:46;;;;;;;;;;;21.30;48.10;;;;;;1563988;73;1939;-70
2023/02/13 10:34:48;;;;;;;;;;;21.20;48.00;;;;;;1561142;75;742;-70
2023/02/13 10:36:49;;;;;;;;;;;21.30;48.10;;;;;;1566314;75;822;-68
2023/02/13 10:39:08;;;;;;;;;;;21.20;48.00;;;;;;1564085;73;746;-75
2023/02/13 10:41:18;;;;;;;;;;;21.20;48.00;;;;;;1571852;73;747;-71
2023/02/13 10:43:20;;;;;;;;;;;21.20;48.10;;;;;;1574992;75;1923;-69
2023/02/13 10:45:24;;;;;;;;;;;21.30;48.20;;;;;;1578659;73;865;-68
2023/02/13 10:47:33;;;;;;;;;;;21.20;48.00;;;;;;1553053;73;1148;-69
2023/02/13 10:49:46;;;;;;;;;;;21.30;48.20;;;;;;1578911;75;1367;-69
2023/02/13 10:52:06;;;;;;;;;;;21.30;48.10;;;;;;1573282;73;1201;-69
2023/02/13 10:54:22;;;;;;;;;;;21.30;48.20;;;;;;1576048;73;1926;-68
2023/02/13 10:56:37;;;;;;;;;;;21.30;48.30;;;;;;1567080;74;799;-69
2023/02/13 10:58:44;;;;;;;;;;;21.30;48.20;;;;;;1571023;73;828;-70
2023/02/13 11:00:55;;;;;;;;;;;21.20;48.20;;;;;;1572021;73;1995;-70
2023/02/13 11:02:58;;;;;;;;;;;21.30;48.30;;;;;;1575687;73;1128;-69
2023/02/13 11:05:01;;;;;;;;;;;21.30;48.40;;;;;;1581463;73;1070;-70
2023/02/13 11:07:03;;;;;;;;;;;21.20;48.20;;;;;;1563660;74;1489;-69
2023/02/13 11:09:06;;;;;;;;;;;21.30;48.40;;;;;;1576941;75;1497;-69
2023/02/13 11:11:27;;;;;;;;;;;21.20;48.30;;;;;;1574815;73;1531;-71
2023/02/13 11:13:29;;;;;;;;;;;21.30;48.40;;;;;;1576692;73;1957;-70
2023/02/13 11:15:31;;;;;;;;;;;21.30;48.40;;;;;;1571157;74;1407;-69
2023/02/13 11:17:36;;;;;;;;;;;21.20;48.30;;;;;;1568124;73;1452;-70
2023/02/13 11:19:39;;;;;;;;;;;21.20;48.30;;;;;;1566894;73;1486;-69
2023/02/13 11:21:41;;;;;;;;;;;21.20;48.40;;;;;;1568309;75;1512;-70
2023/02/13 11:23:52;;;;;;;;;;;21.20;48.40;;;;;;1574215;73;786;-69
2023/02/13 11:26:01;;;;;;;;;;;21.30;48.50;;;;;;1582635;75;741;-69
2023/02/13 11:28:10;;;;;;;;;;;21.20;48.40;;;;;;1582685;75;760;-68
2023/02/13 11:30:13;;;;;;;;;;;21.20;48.40;;;;;;1576771;73;801;-67
2023/02/13 11:32:17;;;;;;;;;;;21.20;48.40;;;;;;1567632;74;1172;-70
2023/02/13 11:34:23;;;;;;;;;;;21.20;48.40;;;;;;1580403;73;1903;-69
2023/02/13 11:36:26;;;;;;;;;;;21.30;48.60;;;;;;1576771;75;1468;-68
2023/02/13 11:38:28;;;;;;;;;;;21.20;48.40;;;;;;1577097;75;756;-69
2023/02/13 11:40:31;;;;;;;;;;;21.30;48.50;;;;;;1582724;73;722;-68
2023/02/13 11:42:34;;;;;;;;;;;21.20;48.40;;;;;;1578730;73;1149;-68
2023/02/13 11:44:36;;;;;;;;;;;21.20;48.40;;;;;;1576356;73;892;-69
2023/02/13 11:46:45;;;;;;;;;;;21.20;48.50;;;;;;1581359;75;756;-69
2023/02/13 11:49:03;;;;;;;;;;;21.20;48.50;;;;;;1582234;73;1760;-69
2023/02/13 11:51:05;;;;;;;;;;;21.20;48.50;;;;;;1568936;75;1542;-69
2023/02/13 11:53:07;;;;;;;;;;;21.30;48.60;;;;;;1580745;73;1158;-69
2023/02/13 11:55:29;;;;;;;;;;;21.30;48.60;;;;;;1563436;73;732;-69
2023/02/13 11:57:34;;;;;;;;;;;21.20;48.50;;;;;;1579572;75;819;-69
2023/02/13 11:59:40;;;;;;;;;;;21.20;48.50;;;;;;1582136;74;779;-69
2023/02/13 12:01:42;;;;;;;;;;;21.20;48.50;;;;;;1570932;73;1139;-69
2023/02/13 12:03:44;;;;;;;;;;;21.30;48.70;;;;;;1582618;75;1616;-69
2023/02/13 12:05:47;;;;;;;;;;;21.20;48.60;;;;;;1578590;73;701;-69
2023/02/13 12:07:49;;;;;;;;;;;21.20;48.60;;;;;;1576928;73;1860;-69
2023/02/13 12:10:01;;;;;;;;;;;21.20;48.60;;;;;;1578870;74;668;-69
2023/02/13 12:12:03;;;;;;;;;;;21.30;48.70;;;;;;1578337;73;1129;-67
2023/02/13 12:14:05;;;;;;;;;;;21.20;48.60;;;;;;1585146;73;1935;-70
2023/02/13 12:16:11;;;;;;;;;;;21.30;48.70;;;;;;1585362;73;789;-68
2023/02/13 12:18:18;;;;;;;;;;;21.20;48.60;;;;;;1580046;75;1869;-69
2023/02/13 12:20:20;;;;;;;;;;;21.20;48.60;;;;;;1578866;75;1539;-70
2023/02/13 12:22:29;;;;;;;;;;;21.20;48.60;;;;;;1568532;75;1144;-66
2023/02/13 12:24:40;;;;;;;;;;;21.20;48.60;;;;;;1575131;73;788;-69
2023/02/13 12:26:43;;;;;;;;;;;21.20;48.60;;;;;;1586981;73;1065;-70
2023/02/13 12:28:50;;;;;;;;;;;21.20;48.60;;;;;;1584852;75;1128;-68
2023/02/13 12:31:09;;;;;;;;;;;21.20;48.60;;;;;;1574096;73;1650;-70
2023/02/13 12:33:15;;;;;;;;;;;21.20;48.60;;;;;;1579735;73;1110;-71
2023/02/13 12:35:21;;;;;;;;;;;21.20;48.70;;;;;;1576489;73;1914;-70
2023/02/13 12:37:27;;;;;;;;;;;21.20;48.60;;;;;;1559771;75;801;-68
2023/02/13 12:39:36;;;;;;;;;;;21.20;48.60;;;;;;1558770;75;704;-69
2023/02/13 12:41:40;;;;;;;;;;;21.10;48.60;;;;;;1561179;75;1164;-68
2023/02/13 12:43:46;;;;;;;;;;;21.20;48.60;;;;;;1559158;75;1821;-69
2023/02/13 12:45:50;;;;;;;;;;;21.30;48.80;;;;;;1548614;74;1571;-69
2023/02/13 12:48:05;;;;;;;;;;;21.20;48.60;;;;;;1554523;75;746;-69
2023/02/13 12:50:21;;;;;;;;;;;21.10;48.60;;;;;;1559269;75;784;-69
2023/02/13 12:52:24;;;;;;;;;;;21.20;48.60;;;;;;1552060;75;1168;-69
2023/02/13 12:54:28;;;;;;;;;;;21.20;48.70;;;;;;1550671;76;1915;-69
2023/02/13 12:56:31;;;;;;;;;;;21.20;48.70;;;;;;1545796;76;1491;-70
2023/02/13 12:58:35;;;;;;;;;;;21.20;48.70;;;;;;1561101;75;2273;-70
2023/02/13 13:00:44;;;;;;;;;;;21.30;48.80;;;;;;1557383;75;1499;-68
2023/02/13 13:03:00;;;;;;;;;;;21.20;48.70;;;;;;1559406;75;1487;-70